TimePST,TemperatureF,Dew PointF,Humidity,Sea Level PressureIn,VisibilityMPH,Wind Direction,Wind SpeedMPH,Gust SpeedMPH,PrecipitationIn,Events,Conditions,WindDirDegrees,DateUTC
12:04 AM,39.2,35.6,87,30.12,10.0,East,3.5,-,N/A,,Scattered Clouds,100,2013-02-10 08:04:00
12:55 AM,37.9,35.1,89,30.09,10.0,NE,4.6,-,N/A,,Clear,40,2013-02-10 08:55:00
1:55 AM,37.9,35.1,89,30.08,10.0,ESE,9.2,-,N/A,,Clear,120,2013-02-10 09:55:00
2:55 AM,37.9,35.1,89,30.08,10.0,East,6.9,-,N/A,,Clear,90,2013-02-10 10:55:00
3:55 AM,37.9,35.1,89,30.07,10.0,East,8.1,-,N/A,,Clear,100,2013-02-10 11:55:00
4:55 AM,36.0,34.0,93,30.07,10.0,ESE,9.2,-,N/A,,Clear,110,2013-02-10 12:55:00
5:55 AM,36.0,34.0,93,30.07,10.0,ESE,10.4,-,N/A,,Clear,110,2013-02-10 13:55:00
6:55 AM,35.1,33.1,92,30.08,10.0,East,5.8,-,N/A,,Clear,100,2013-02-10 14:55:00
7:55 AM,37.9,36.0,93,30.09,10.0,ESE,9.2,-,N/A,,Clear,110,2013-02-10 15:55:00
8:55 AM,44.1,37.9,79,30.10,10.0,ESE,6.9,-,N/A,,Clear,120,2013-02-10 16:55:00
9:55 AM,48.9,37.9,66,30.09,10.0,Calm,Calm,-,N/A,,Clear,0,2013-02-10 17:55:00
10:55 AM,52.0,39.9,63,30.09,10.0,NW,6.9,-,N/A,,Clear,320,2013-02-10 18:55:00
11:55 AM,53.1,39.9,61,30.07,10.0,NW,8.1,-,N/A,,Clear,310,2013-02-10 19:55:00
12:55 PM,53.1,42.1,66,30.04,10.0,WNW,11.5,-,N/A,,Clear,300,2013-02-10 20:55:00
1:55 PM,53.1,44.1,71,30.02,10.0,West,10.4,17.3,N/A,,Clear,280,2013-02-10 21:55:00
2:48 PM,53.6,44.6,72,30.04,10.0,West,11.5,-,N/A,,Mostly Cloudy,270,2013-02-10 22:48:00
2:55 PM,53.1,44.1,71,30.02,10.0,West,10.4,-,N/A,,Mostly Cloudy,270,2013-02-10 22:55:00
3:10 PM,53.6,44.6,72,30.03,10.0,West,10.4,-,N/A,,Mostly Cloudy,280,2013-02-10 23:10:00
3:55 PM,53.1,44.1,71,30.02,10.0,West,9.2,-,N/A,,Partly Cloudy,280,2013-02-10 23:55:00
4:55 PM,51.1,43.0,74,30.02,10.0,WNW,10.4,-,N/A,,Partly Cloudy,300,2013-02-11 00:55:00
5:35 PM,50.0,44.6,82,30.04,10.0,WNW,6.9,-,N/A,,Mostly Cloudy,300,2013-02-11 01:35:00
5:55 PM,48.9,44.1,83,30.02,10.0,WNW,5.8,-,N/A,,Overcast,300,2013-02-11 01:55:00
6:55 PM,48.9,44.1,83,30.03,10.0,NW,3.5,-,N/A,,Overcast,310,2013-02-11 02:55:00
7:55 PM,46.9,43.0,86,30.04,10.0,Calm,Calm,-,N/A,,Mostly Cloudy,0,2013-02-11 03:55:00
11:30 PM,-9999,-9999,N/A,-9999,-9999.0,North,-9999.0,-,N/A,,Volcanic Ash,0,2013-02-11 07:30:00